Time;durP1;ratioP1;P1;durP2;ratioP2;P2;SDS_P1;SDS_P2;PMS_P1;PMS_P2;Temp;Humidity;BMP_temperature;BMP_pressure;BME280_temperature;BME280_humidity;BME280_pressure;Samples;Min_cycle;Max_cycle;Signal;HPM_P1;HPM_P2
2021/01/19 00:02:22;;;;;;;46.80;17.92;;;;;;;-15.15;66.72;99848.03;1696365;84;21561;-57
2021/01/19 00:04:50;;;;;;;46.70;21.17;;;;;;;-15.19;66.94;99843.50;1686324;84;21161;-57
2021/01/19 00:07:17;;;;;;;36.98;16.15;;;;;;;-15.14;67.12;99843.19;1706441;82;21527;-57
2021/01/19 00:09:45;;;;;;;44.65;19.10;;;;;;;-15.35;67.12;99813.36;1698383;84;21747;-58
2021/01/19 00:12:12;;;;;;;39.55;17.57;;;;;;;-15.17;67.31;99839.95;1705843;84;21182;-57
2021/01/19 00:14:40;;;;;;;36.33;16.20;;;;;;;-15.17;67.40;99840.80;1666753;84;21165;-57
2021/01/19 00:17:08;;;;;;;40.23;16.73;;;;;;;-15.17;67.56;99834.27;1682649;84;21193;-57
2021/01/19 00:19:35;;;;;;;39.90;17.80;;;;;;;-15.16;67.66;99837.25;1688462;84;21186;-57
2021/01/19 00:22:03;;;;;;;40.83;17.40;;;;;;;-15.09;67.76;99835.88;1683237;84;21189;-58
2021/01/19 00:24:30;;;;;;;41.60;17.52;;;;;;;-14.98;67.78;99832.51;1699202;84;21279;-57
2021/01/19 00:26:57;;;;;;;37.13;18.05;;;;;;;-14.94;67.66;99836.08;1695373;82;21316;-58
2021/01/19 00:29:26;;;;;;;37.50;17.30;;;;;;;-14.93;67.61;99840.37;1682047;84;21177;-57
2021/01/19 00:31:54;;;;;;;44.70;18.00;;;;;;;-14.90;67.59;99841.45;1698802;82;21617;-57
2021/01/19 00:34:22;;;;;;;40.65;18.35;;;;;;;-14.89;67.51;99839.67;1675556;84;21291;-57
2021/01/19 00:36:49;;;;;;;31.10;12.65;;;;;;;-14.91;67.41;99834.55;1688741;84;21169;-57
2021/01/19 00:39:16;;;;;;;45.35;18.82;;;;;;;-14.88;67.42;99836.13;1707473;84;21645;-57
2021/01/19 00:44:45;;;;;;;38.40;17.07;;;;;;;-14.84;67.42;99832.36;1763167;79;23411;-56
2021/01/19 00:47:13;;;;;;;28.12;11.40;;;;;;;-14.92;67.33;99831.59;1742150;82;21218;-57
2021/01/19 00:49:40;;;;;;;36.98;16.80;;;;;;;-14.88;67.41;99832.21;1713038;82;21177;-57
2021/01/19 00:52:08;;;;;;;24.18;9.75;;;;;;;-14.90;67.31;99832.30;1736157;82;21161;-56
2021/01/19 00:54:35;;;;;;;42.03;17.17;;;;;;;-14.90;67.41;99831.00;1724180;82;21205;-56
2021/01/19 00:57:03;;;;;;;40.88;18.52;;;;;;;-14.96;67.13;99830.14;1726692;82;21632;-56
2021/01/19 00:59:30;;;;;;;31.02;12.68;;;;;;;-14.97;67.31;99824.55;1702521;82;21445;-56
2021/01/19 01:02:00;;;;;;;36.70;15.70;;;;;;;-14.92;67.29;99825.53;1744907;81;21722;-58
2021/01/19 01:04:27;;;;;;;36.35;16.15;;;;;;;-14.95;67.14;99829.20;1733260;82;21169;-57
2021/01/19 01:06:55;;;;;;;34.58;14.70;;;;;;;-15.03;67.11;99822.84;1729823;82;21576;-57
2021/01/19 01:09:22;;;;;;;35.88;15.65;;;;;;;-15.03;67.24;99822.84;1729173;82;21324;-58
2021/01/19 01:11:50;;;;;;;26.10;10.40;;;;;;;-15.02;67.34;99819.30;1752167;82;21568;-58
2021/01/19 01:14:17;;;;;;;35.17;14.55;;;;;;;-15.00;67.36;99820.84;1728764;82;21712;-57
2021/01/19 01:19:45;;;;;;;38.02;16.60;;;;;;;-14.98;67.40;99812.91;1764354;79;22859;-55
2021/01/19 01:22:13;;;;;;;34.15;16.70;;;;;;;-14.98;67.43;99816.83;1709849;83;21129;-56
2021/01/19 01:24:40;;;;;;;30.45;12.40;;;;;;;-14.94;67.39;99820.41;1689452;83;21620;-56
2021/01/19 01:27:07;;;;;;;33.40;15.80;;;;;;;-14.98;67.37;99825.48;1717258;83;21190;-55
2021/01/19 01:29:35;;;;;;;35.13;13.80;;;;;;;-15.06;67.39;99821.76;1677780;85;21140;-56
2021/01/19 01:32:02;;;;;;;29.52;11.63;;;;;;;-15.11;67.45;99822.08;1673287;85;21184;-56
2021/01/19 01:34:30;;;;;;;28.10;12.30;;;;;;;-15.23;67.73;99823.76;1674177;85;21184;-57
2021/01/19 01:36:57;;;;;;;37.28;15.63;;;;;;;-15.22;67.80;99830.66;1680673;84;21192;-57
2021/01/19 01:39:25;;;;;;;34.23;13.75;;;;;;;-15.25;67.89;99824.35;1671145;85;21370;-56
2021/01/19 01:41:52;;;;;;;33.78;14.15;;;;;;;-15.24;67.91;99826.03;1648658;85;21576;-56
2021/01/19 01:44:19;;;;;;;27.55;12.18;;;;;;;-15.24;67.94;99829.95;1677597;84;21330;-57
2021/01/19 01:46:47;;;;;;;33.15;14.73;;;;;;;-15.18;68.00;99832.59;1660187;85;21372;-57
2021/01/19 01:49:14;;;;;;;29.20;12.07;;;;;;;-15.18;67.84;99831.28;1680506;85;21200;-56
2021/01/19 01:51:42;;;;;;;33.55;14.45;;;;;;;-15.23;67.84;99832.90;1672604;85;21322;-57
2021/01/19 01:54:09;;;;;;;22.02;8.10;;;;;;;-15.25;67.84;99824.82;1672348;85;21318;-56
2021/01/19 01:56:37;;;;;;;34.43;14.90;;;;;;;-15.26;67.80;99825.75;1661313;85;21184;-57
2021/01/19 01:59:05;;;;;;;28.42;10.78;;;;;;;-15.30;67.88;99821.22;1661873;85;21862;-57
2021/01/19 02:01:32;;;;;;;27.37;10.63;;;;;;;-15.28;67.98;99822.42;1663761;83;21130;-56
2021/01/19 02:03:59;;;;;;;24.65;10.20;;;;;;;-15.32;67.98;99824.42;1694157;83;21216;-56
2021/01/19 02:06:30;;;;;;;28.77;12.43;;;;;;;-15.38;67.89;99819.63;1688308;83;21727;-56
2021/01/19 02:09:03;;;;;;;29.67;13.72;;;;;;;-15.43;67.86;99821.71;1704809;83;21715;-57
2021/01/19 02:11:54;;;;;;;32.08;13.90;;;;;;;-15.46;67.69;99824.54;1711003;83;21133;-57
2021/01/19 02:14:33;;;;;;;23.32;10.03;;;;;;;-15.53;67.69;99815.96;1694830;83;21149;-57
2021/01/19 02:17:23;;;;;;;29.25;11.40;;;;;;;-15.65;67.79;99813.72;1705277;83;21169;-56
2021/01/19 02:20:20;;;;;;;32.85;14.00;;;;;;;-15.78;68.03;99816.34;1685883;83;21578;-56
2021/01/19 02:23:13;;;;;;;31.33;12.95;;;;;;;-15.87;68.03;99818.25;1678991;84;21197;-56
2021/01/19 02:25:53;;;;;;;26.17;9.98;;;;;;;-15.93;68.12;99817.37;1703764;84;21138;-55
2021/01/19 02:28:37;;;;;;;31.87;12.37;;;;;;;-16.00;68.31;99826.55;1708536;84;21142;-56
2021/01/19 02:31:22;;;;;;;27.27;11.57;;;;;;;-16.04;68.23;99817.71;1701709;84;21161;-57
2021/01/19 02:34:17;;;;;;;30.25;13.45;;;;;;;-16.06;68.24;99822.20;1652216;84;21799;-56
2021/01/19 02:36:56;;;;;;;31.15;12.23;;;;;;;-16.07;68.21;99822.67;1680095;84;21157;-57
2021/01/19 02:39:53;;;;;;;31.80;13.25;;;;;;;-16.10;68.15;99820.27;1694004;84;21196;-57
2021/01/19 02:42:24;;;;;;;40.30;13.43;;;;;;;-16.15;68.06;99818.42;1681482;84;21300;-57
2021/01/19 02:44:51;;;;;;;42.45;14.58;;;;;;;-16.22;68.07;99810.19;1703517;84;21162;-56
2021/01/19 02:47:19;;;;;;;32.58;12.45;;;;;;;-16.29;68.13;99815.44;1708749;84;21630;-57
2021/01/19 02:49:46;;;;;;;35.80;13.28;;;;;;;-16.33;68.17;99815.77;1703801;84;21215;-57
2021/01/19 02:52:14;;;;;;;26.77;12.23;;;;;;;-16.37;68.19;99819.04;1688763;84;21958;-57
2021/01/19 02:54:43;;;;;;;33.50;14.85;;;;;;;-16.38;68.16;99818.66;1682274;84;21176;-56
2021/01/19 02:57:39;;;;;;;28.25;12.45;;;;;;;-16.43;68.12;99819.42;1659910;85;21202;-57
2021/01/19 03:00:14;;;;;;;30.62;13.20;;;;;;;-16.46;68.20;99814.88;1650080;86;21161;-57
2021/01/19 03:02:44;;;;;;;30.17;12.60;;;;;;;-16.55;68.24;99816.82;1652412;86;21312;-57
2021/01/19 03:05:15;;;;;;;29.95;12.10;;;;;;;-16.57;68.29;99815.61;1648459;86;21202;-55
2021/01/19 03:07:44;;;;;;;32.17;12.63;;;;;;;-16.51;68.29;99820.87;1650782;86;21628;-55
2021/01/19 03:10:13;;;;;;;23.10;9.55;;;;;;;-16.46;68.20;99810.50;1655856;86;21295;-56
2021/01/19 03:12:43;;;;;;;22.42;8.90;;;;;;;-16.44;68.07;99819.53;1645552;86;21206;-56
2021/01/19 03:15:12;;;;;;;27.80;11.90;;;;;;;-16.46;68.04;99813.56;1653123;86;21303;-56
2021/01/19 03:17:41;;;;;;;42.38;16.62;;;;;;;-16.49;68.10;99813.77;1649668;86;21174;-58
2021/01/19 03:20:13;;;;;;;46.92;17.77;;;;;;;-16.50;68.24;99812.94;1664370;84;21188;-56
2021/01/19 03:22:41;;;;;;;29.27;11.20;;;;;;;-16.41;68.38;99808.91;1669475;85;21174;-56
2021/01/19 03:25:09;;;;;;;39.83;15.68;;;;;;;-16.36;68.30;99810.72;1656472;85;21739;-56
2021/01/19 03:27:37;;;;;;;43.10;16.57;;;;;;;-16.32;68.30;99809.59;1669642;85;21181;-56
2021/01/19 03:30:06;;;;;;;33.02;12.43;;;;;;;-16.27;68.13;99812.74;1669329;86;21570;-56
2021/01/19 03:32:33;;;;;;;32.67;12.95;;;;;;;-16.32;67.90;99816.95;1646463;86;21315;-56
2021/01/19 03:35:01;;;;;;;28.90;11.55;;;;;;;-16.39;67.93;99819.59;1648646;86;21183;-56
2021/01/19 03:37:28;;;;;;;35.80;14.05;;;;;;;-16.69;67.92;99778.64;1665711;86;21153;-59
2021/01/19 03:39:57;;;;;;;35.25;13.18;;;;;;;-16.50;67.96;99814.70;1657128;86;21184;-56
2021/01/19 03:42:24;;;;;;;33.58;13.50;;;;;;;-16.53;68.02;99815.75;1663422;86;21307;-56
2021/01/19 03:44:51;;;;;;;32.53;13.08;;;;;;;-16.55;67.96;99811.11;1649549;86;21346;-55
2021/01/19 03:47:18;;;;;;;34.92;14.85;;;;;;;-16.56;67.99;99815.14;1679642;85;21140;-56
2021/01/19 03:49:46;;;;;;;38.25;14.95;;;;;;;-16.57;68.05;99812.16;1672580;85;21880;-56
2021/01/19 03:52:13;;;;;;;33.83;15.32;;;;;;;-16.53;68.07;99812.30;1655601;85;21155;-56
2021/01/19 03:54:40;;;;;;;29.42;11.35;;;;;;;-16.54;67.95;99821.88;1663574;85;21205;-56
2021/01/19 03:57:08;;;;;;;37.70;14.45;;;;;;;-16.56;67.98;99817.75;1664748;85;21715;-56
2021/01/19 03:59:35;;;;;;;34.23;14.07;;;;;;;-16.61;67.93;99821.94;1663586;85;21199;-56
2021/01/19 04:02:03;;;;;;;34.00;13.88;;;;;;;-16.66;68.08;99816.67;1669110;85;21201;-56
2021/01/19 04:04:30;;;;;;;31.93;13.68;;;;;;;-16.69;68.03;99815.58;1653878;85;21148;-56
2021/01/19 04:06:57;;;;;;;35.85;13.72;;;;;;;-16.72;68.04;99821.33;1659509;83;21240;-56
2021/01/19 04:09:25;;;;;;;26.68;11.15;;;;;;;-16.77;68.11;99823.41;1659980;85;21641;-55
2021/01/19 04:11:52;;;;;;;36.53;14.98;;;;;;;-16.77;68.13;99818.67;1644785;86;21192;-55
2021/01/19 04:14:20;;;;;;;25.43;9.05;;;;;;;-16.75;68.10;99812.88;1650511;85;21161;-56
2021/01/19 04:16:47;;;;;;;33.25;12.60;;;;;;;-16.72;68.08;99811.87;1667460;85;21201;-56
2021/01/19 04:19:14;;;;;;;39.65;15.50;;;;;;;-16.75;67.99;99810.27;1670865;84;21315;-56
2021/01/19 04:21:42;;;;;;;36.13;15.30;;;;;;;-16.80;67.99;99813.66;1708291;84;21591;-55
2021/01/19 04:24:10;;;;;;;42.40;16.97;;;;;;;-16.84;68.06;99809.58;1699494;84;21510;-55
2021/01/19 04:26:38;;;;;;;39.95;16.97;;;;;;;-16.85;68.03;99807.89;1708387;84;21195;-55
2021/01/19 04:29:05;;;;;;;39.48;16.73;;;;;;;-16.88;68.02;99802.89;1706318;84;21712;-55
2021/01/19 04:31:33;;;;;;;43.10;17.65;;;;;;;-16.87;68.04;99808.47;1700633;83;21165;-55
2021/01/19 04:34:02;;;;;;;29.77;11.12;;;;;;;-16.82;68.07;99811.60;1696089;84;21284;-55
2021/01/19 04:36:29;;;;;;;42.83;16.07;;;;;;;-16.80;67.95;99819.70;1685515;84;21142;-55
2021/01/19 04:38:56;;;;;;;42.17;18.40;;;;;;;-16.86;67.88;99813.56;1676595;83;21188;-55
2021/01/19 04:41:26;;;;;;;40.30;15.63;;;;;;;-16.84;67.93;99804.37;1671395;84;21185;-55
2021/01/19 04:43:56;;;;;;;26.68;9.78;;;;;;;-16.84;67.85;99813.02;1704183;84;21652;-55
2021/01/19 04:48:54;;;;;;;30.88;12.90;;;;;;;-16.85;67.65;99810.03;1798628;79;22828;-56
2021/01/19 04:51:23;;;;;;;35.25;13.70;;;;;;;-16.99;67.90;99815.28;1761745;80;21109;-55
2021/01/19 04:54:07;;;;;;;35.95;14.13;;;;;;;-16.96;67.90;99820.30;1760650;81;21211;-55
2021/01/19 04:56:39;;;;;;;30.52;11.20;;;;;;;-16.90;67.83;99826.44;1761633;80;21168;-56
2021/01/19 04:59:13;;;;;;;29.57;11.80;;;;;;;-16.88;67.74;99824.56;1767020;80;21291;-56
2021/01/19 05:02:02;;;;;;;35.80;13.72;;;;;;;-16.92;67.70;99831.35;1755038;80;21283;-57
2021/01/19 05:04:52;;;;;;;34.35;11.75;;;;;;;-16.93;67.77;99829.70;1773478;80;21698;-57
2021/01/19 05:07:34;;;;;;;36.28;14.10;;;;;;;-16.94;67.80;99827.56;1729128;81;21645;-56
2021/01/19 05:10:11;;;;;;;36.83;13.75;;;;;;;-16.97;67.93;99830.36;1738156;81;21273;-56
2021/01/19 05:12:43;;;;;;;34.50;12.18;;;;;;;-16.96;68.06;99825.50;1724719;82;21187;-57
2021/01/19 05:15:13;;;;;;;40.85;14.98;;;;;;;-16.90;67.94;99834.71;1732876;81;21158;-57
2021/01/19 05:17:42;;;;;;;33.80;13.65;;;;;;;-16.92;68.01;99836.56;1731985;82;21675;-57
2021/01/19 05:20:11;;;;;;;33.80;13.90;;;;;;;-16.94;68.00;99837.14;1736489;81;21161;-57
2021/01/19 05:22:39;;;;;;;37.30;14.90;;;;;;;-16.92;67.91;99833.49;1728028;81;21189;-57
2021/01/19 05:25:08;;;;;;;31.87;14.23;;;;;;;-16.88;67.92;99839.34;1727134;82;21164;-57
2021/01/19 05:27:35;;;;;;;34.25;15.15;;;;;;;-16.84;67.77;99842.13;1702770;82;21733;-57
2021/01/19 05:30:08;;;;;;;40.10;17.07;;;;;;;-16.82;67.65;99841.09;1738227;81;21200;-57
2021/01/19 05:32:42;;;;;;;42.88;17.37;;;;;;;-16.80;67.47;99848.81;1735365;81;21136;-57
2021/01/19 05:35:20;;;;;;;37.25;15.63;;;;;;;-16.81;67.45;99845.38;1729001;82;21150;-56
2021/01/19 05:37:59;;;;;;;35.83;15.80;;;;;;;-16.77;67.39;99851.22;1725950;82;21335;-56
2021/01/19 05:40:29;;;;;;;37.50;16.52;;;;;;;-16.70;67.31;99859.02;1719003;82;21165;-57
2021/01/19 05:42:56;;;;;;;42.73;16.42;;;;;;;-16.71;67.02;99862.55;1727024;82;21619;-56
2021/01/19 05:45:24;;;;;;;42.38;16.90;;;;;;;-16.70;66.95;99854.27;1726754;83;21346;-57
2021/01/19 05:47:51;;;;;;;43.50;18.67;;;;;;;-16.58;66.99;99863.92;1691860;83;21202;-57
2021/01/19 05:50:18;;;;;;;44.23;18.05;;;;;;;-16.47;66.84;99856.22;1747855;81;21214;-57
2021/01/19 05:52:45;;;;;;;42.75;19.10;;;;;;;-16.36;66.62;99853.73;1758782;80;21642;-57
2021/01/19 05:55:13;;;;;;;43.75;17.73;;;;;;;-16.34;66.25;99851.88;1729116;82;21364;-57
2021/01/19 05:57:40;;;;;;;45.05;17.62;;;;;;;-16.36;66.10;99857.63;1749780;81;21609;-57
2021/01/19 06:00:09;;;;;;;47.17;18.98;;;;;;;-16.35;66.01;99861.45;1759705;81;21496;-57
2021/01/19 06:02:41;;;;;;;46.85;18.32;;;;;;;-16.39;65.94;99861.75;1753580;81;21146;-56
2021/01/19 06:05:14;;;;;;;40.55;16.75;;;;;;;-16.41;65.95;99863.63;1759073;81;21179;-57
2021/01/19 06:07:46;;;;;;;43.55;16.80;;;;;;;-16.43;65.90;99865.02;1747285;81;21609;-56
2021/01/19 06:10:21;;;;;;;38.50;16.73;;;;;;;-16.47;65.99;99866.15;1747045;82;21169;-57
2021/01/19 06:12:48;;;;;;;38.35;16.60;;;;;;;-16.47;66.09;99870.05;1747004;82;21612;-56
2021/01/19 06:15:26;;;;;;;37.25;16.52;;;;;;;-16.44;66.07;99865.14;1746816;82;21303;-56
2021/01/19 06:17:53;;;;;;;35.00;13.60;;;;;;;-16.43;66.11;99864.18;1746963;82;21347;-57
2021/01/19 06:20:20;;;;;;;35.35;15.32;;;;;;;-16.42;66.01;99865.40;1777465;81;21142;-56
2021/01/19 06:22:48;;;;;;;42.25;18.15;;;;;;;-16.50;65.94;99862.91;1777870;81;21607;-56
2021/01/19 06:25:16;;;;;;;47.53;18.80;;;;;;;-16.54;66.06;99860.16;1774786;81;21137;-56
2021/01/19 06:27:43;;;;;;;51.18;21.37;;;;;;;-16.57;66.17;99857.75;1763317;81;21189;-55
2021/01/19 06:30:12;;;;;;;42.38;18.12;;;;;;;-16.59;66.37;99864.38;1711258;83;21646;-56
2021/01/19 06:32:48;;;;;;;49.88;20.48;;;;;;;-16.55;66.41;99872.84;1747611;81;21177;-56
2021/01/19 06:35:22;;;;;;;28.35;11.45;;;;;;;-16.53;66.48;99874.83;1747171;82;21684;-56
2021/01/19 06:37:52;;;;;;;46.70;19.10;;;;;;;-16.47;66.48;99870.55;1746931;82;21181;-57
2021/01/19 06:40:21;;;;;;;45.58;19.30;;;;;;;-16.47;66.45;99871.36;1747005;82;21631;-56
2021/01/19 06:43:00;;;;;;;46.85;19.15;;;;;;;-16.43;66.55;99878.05;1762220;81;21178;-56
2021/01/19 06:45:28;;;;;;;51.75;21.37;;;;;;;-16.31;66.50;99875.97;1762547;81;21611;-56
2021/01/19 06:47:56;;;;;;;74.55;29.00;;;;;;;-16.17;66.38;99880.74;1770547;81;21177;-56
2021/01/19 06:50:28;;;;;;;71.75;27.87;;;;;;;-16.07;66.27;99890.47;1758915;81;21125;-55
2021/01/19 06:53:16;;;;;;;75.57;28.02;;;;;;;-15.99;66.03;99886.05;1763129;80;21157;-58
2021/01/19 06:56:01;;;;;;;68.05;26.62;;;;;;;-15.99;65.87;99887.36;1742018;81;21239;-55
2021/01/19 06:58:55;;;;;;;55.75;20.70;;;;;;;-16.01;65.98;99887.45;1711033;84;21156;-55
2021/01/19 07:01:28;;;;;;;50.60;18.37;;;;;;;-15.97;66.05;99886.78;1741028;82;21215;-56
2021/01/19 07:04:27;;;;;;;53.52;20.30;;;;;;;-15.97;66.05;99886.31;1746219;81;21157;-56
2021/01/19 07:07:09;;;;;;;53.63;20.48;;;;;;;-15.97;66.09;99888.08;1747019;82;21201;-56
2021/01/19 07:10:09;;;;;;;34.63;14.50;;;;;;;-15.93;66.19;99897.38;1750597;81;21137;-56
2021/01/19 07:12:57;;;;;;;39.27;16.95;;;;;;;-15.91;66.04;99889.84;1746983;82;21197;-56
2021/01/19 07:16:05;;;;;;;42.03;15.90;;;;;;;-15.85;66.07;99893.80;1746864;82;21189;-57
2021/01/19 07:18:45;;;;;;;45.48;18.12;;;;;;;-15.83;65.79;99881.02;1747100;82;21362;-57
2021/01/19 07:21:15;;;;;;;45.00;16.73;;;;;;;-15.85;65.82;99884.67;1748889;81;21315;-57
2021/01/19 07:23:51;;;;;;;43.33;18.65;;;;;;;-15.76;66.05;99883.58;1747114;81;21177;-58
2021/01/19 07:26:23;;;;;;;34.30;12.82;;;;;;;-15.58;65.72;99882.81;1744772;80;21144;-56
2021/01/19 07:28:51;;;;;;;32.58;14.20;;;;;;;-15.41;64.95;99884.27;1758783;81;21771;-57
2021/01/19 07:31:20;;;;;;;39.25;16.32;;;;;;;-15.35;64.81;99889.06;1752936;81;21283;-56
2021/01/19 07:33:51;;;;;;;31.70;14.70;;;;;;;-15.30;64.80;99887.79;1777577;80;21177;-56
2021/01/19 07:36:20;;;;;;;28.95;10.58;;;;;;;-15.24;64.22;99884.78;1759521;81;21179;-56
2021/01/19 07:38:48;;;;;;;24.23;10.25;;;;;;;-15.09;64.17;99884.19;1749551;80;21589;-56
2021/01/19 07:41:32;;;;;;;29.60;12.93;;;;;;;-14.99;63.70;99885.22;1756913;81;21174;-56
2021/01/19 07:48:32;;;;;;;30.20;12.58;;;;;;;-14.47;63.55;99896.72;1813523;79;22828;-56
2021/01/19 07:51:16;;;;;;;34.10;13.50;;;;;;;-14.34;62.92;99900.11;1774234;80;21299;-56
2021/01/19 07:53:54;;;;;;;32.90;14.38;;;;;;;-14.22;61.73;99898.36;1762218;81;21152;-55
2021/01/19 07:56:29;;;;;;;27.22;11.90;;;;;;;-14.26;61.72;99895.13;1762122;81;21214;-57
2021/01/19 07:58:57;;;;;;;32.45;14.63;;;;;;;-14.10;61.71;99896.64;1762172;81;21161;-57
2021/01/19 08:01:34;;;;;;;29.55;13.03;;;;;;;-13.90;61.17;99897.31;1764835;81;21504;-57
2021/01/19 08:04:13;;;;;;;30.37;14.28;;;;;;;-13.81;60.74;99895.30;1764993;81;21573;-56
2021/01/19 08:06:44;;;;;;;30.77;15.55;;;;;;;-13.56;60.59;99905.61;1764516;81;21313;-57
2021/01/19 08:09:15;;;;;;;28.15;12.20;;;;;;;-13.39;59.99;99906.48;1764548;81;21285;-57
2021/01/19 08:11:44;;;;;;;27.62;13.43;;;;;;;-13.34;59.44;99908.75;1763106;81;22010;-57
2021/01/19 08:14:13;;;;;;;22.75;10.50;;;;;;;-13.41;59.32;99905.77;1761934;81;21216;-57
2021/01/19 08:16:47;;;;;;;36.45;15.48;;;;;;;-13.39;59.08;99909.59;1761765;81;21343;-57
2021/01/19 08:19:15;;;;;;;32.20;15.10;;;;;;;-13.33;59.17;99914.36;1763405;80;21117;-57
2021/01/19 08:21:51;;;;;;;34.88;13.98;;;;;;;-13.19;59.18;99919.38;1764641;80;21713;-57
2021/01/19 08:24:22;;;;;;;23.45;10.10;;;;;;;-12.91;59.29;99921.98;1763906;80;21136;-57
2021/01/19 08:26:51;;;;;;;29.70;15.32;;;;;;;-12.71;57.84;99918.16;1761928;81;21226;-56
2021/01/19 08:29:20;;;;;;;29.45;11.90;;;;;;;-12.83;57.40;99909.13;1760401;80;21456;-57
2021/01/19 08:31:56;;;;;;;21.87;9.70;;;;;;;-12.79;57.81;99908.77;1763028;80;21283;-57
2021/01/19 08:34:25;;;;;;;29.15;13.70;;;;;;;-12.80;57.57;99911.03;1762939;80;21295;-57
2021/01/19 08:36:54;;;;;;;29.10;13.90;;;;;;;-12.77;57.99;99905.54;1761985;81;21326;-56
2021/01/19 08:39:22;;;;;;;25.55;10.35;;;;;;;-12.70;57.27;99894.93;1786336;80;21771;-57
2021/01/19 08:41:53;;;;;;;26.85;10.98;;;;;;;-12.54;57.12;99898.97;1779502;80;21153;-57
2021/01/19 08:44:23;;;;;;;25.65;13.18;;;;;;;-12.39;57.23;99898.56;1692619;84;21362;-56
2021/01/19 08:46:50;;;;;;;23.77;11.33;;;;;;;-12.24;56.54;99893.87;1718068;83;21620;-56
2021/01/19 08:49:18;;;;;;;26.27;11.45;;;;;;;-12.04;56.33;99893.59;1705505;83;21161;-58
2021/01/19 08:51:49;;;;;;;23.35;10.25;;;;;;;-11.97;55.71;99894.25;1695454;84;21189;-56
2021/01/19 08:54:17;;;;;;;14.45;5.58;;;;;;;-12.02;55.36;99889.88;1695496;84;21138;-56
2021/01/19 08:56:45;;;;;;;26.55;12.47;;;;;;;-11.96;54.95;99895.09;1720836;83;21304;-56
2021/01/19 08:59:17;;;;;;;23.65;10.40;;;;;;;-12.11;55.00;99893.23;1720472;83;21162;-55
2021/01/19 09:01:52;;;;;;;27.25;12.37;;;;;;;-12.26;55.13;99891.40;1720520;82;21173;-56
2021/01/19 09:04:26;;;;;;;25.17;11.63;;;;;;;-12.30;55.91;99892.59;1720419;83;21182;-56
2021/01/19 09:07:07;;;;;;;25.90;12.28;;;;;;;-12.19;56.42;99883.86;1720474;83;21186;-56
2021/01/19 09:09:36;;;;;;;20.17;9.10;;;;;;;-11.98;56.15;99885.20;1721801;82;21194;-56
2021/01/19 09:12:06;;;;;;;21.48;9.80;;;;;;;-11.95;55.25;99886.27;1737028;82;21218;-56
2021/01/19 09:14:35;;;;;;;26.82;11.78;;;;;;;-12.11;55.38;99884.55;1694711;83;21612;-56
2021/01/19 09:17:02;;;;;;;29.25;12.40;;;;;;;-12.17;56.02;99879.30;1720466;83;21207;-56
2021/01/19 09:19:29;;;;;;;25.77;12.65;;;;;;;-12.05;55.96;99875.70;1719890;83;21189;-56
2021/01/19 09:21:57;;;;;;;25.30;12.53;;;;;;;-11.94;56.22;99875.66;1720416;83;21201;-56
2021/01/19 09:24:25;;;;;;;26.07;11.63;;;;;;;-11.75;55.96;99869.69;1720215;83;21197;-58
2021/01/19 09:27:01;;;;;;;21.00;9.50;;;;;;;-11.57;55.58;99865.50;1730571;82;21211;-57
2021/01/19 09:29:31;;;;;;;21.60;10.72;;;;;;;-11.45;54.94;99868.91;1726019;82;21169;-57
2021/01/19 09:32:00;;;;;;;22.62;10.35;;;;;;;-11.46;54.83;99869.86;1720222;83;21223;-58
2021/01/19 09:34:27;;;;;;;23.80;11.75;;;;;;;-11.39;54.95;99865.75;1720282;83;21209;-57
2021/01/19 09:36:55;;;;;;;28.15;12.98;;;;;;;-11.46;54.57;99863.29;1721934;82;21114;-57
2021/01/19 09:39:31;;;;;;;23.40;10.35;;;;;;;-11.59;54.85;99866.13;1720205;83;21661;-57
2021/01/19 09:42:00;;;;;;;19.15;8.85;;;;;;;-11.51;54.75;99862.86;1720927;83;21319;-57
2021/01/19 09:44:29;;;;;;;21.17;10.10;;;;;;;-11.37;54.98;99865.16;1722690;83;21185;-57
2021/01/19 09:47:03;;;;;;;20.10;9.38;;;;;;;-11.25;54.47;99860.16;1722046;82;21227;-57
2021/01/19 09:49:30;;;;;;;21.80;10.08;;;;;;;-11.21;54.23;99862.41;1722073;82;21141;-57
2021/01/19 09:52:11;;;;;;;24.47;11.08;;;;;;;-11.29;54.45;99868.78;1750847;80;21692;-59
2021/01/19 09:54:38;;;;;;;24.90;11.18;;;;;;;-11.31;54.35;99862.84;1750659;82;21284;-57
2021/01/19 09:57:08;;;;;;;22.67;10.75;;;;;;;-11.29;54.61;99860.06;1766659;80;21218;-58
2021/01/19 09:59:38;;;;;;;17.87;8.15;;;;;;;-11.28;54.30;99859.11;1781608;80;21169;-57
2021/01/19 10:02:06;;;;;;;25.72;11.38;;;;;;;-11.25;54.37;99856.22;1781548;80;21190;-55
2021/01/19 10:04:33;;;;;;;26.65;12.45;;;;;;;-11.25;54.29;99849.64;1781627;80;21161;-55
2021/01/19 10:07:11;;;;;;;29.35;11.57;;;;;;;-11.19;54.79;99849.95;1744646;82;21610;-55
2021/01/19 10:09:38;;;;;;;21.50;10.10;;;;;;;-11.02;54.40;99851.63;1755867;80;21280;-55
2021/01/19 10:12:09;;;;;;;29.15;14.13;;;;;;;-11.04;53.75;99850.44;1714841;83;21215;-55
2021/01/19 10:14:41;;;;;;;27.25;13.53;;;;;;;-11.40;54.14;99819.41;1765585;80;21153;-56
2021/01/19 10:17:10;;;;;;;24.20;10.78;;;;;;;-11.28;54.16;99849.91;1746188;82;21174;-56
2021/01/19 10:19:38;;;;;;;31.65;13.75;;;;;;;-11.29;54.67;99846.92;1750680;82;21149;-59
2021/01/19 10:22:08;;;;;;;26.90;11.40;;;;;;;-11.39;54.87;99845.56;1750612;82;21610;-55
2021/01/19 10:24:36;;;;;;;24.35;11.38;;;;;;;-11.40;55.27;99841.27;1750629;82;21299;-55
2021/01/19 10:27:09;;;;;;;24.18;10.60;;;;;;;-11.41;55.50;99837.00;1752291;82;21278;-55
2021/01/19 10:29:41;;;;;;;21.10;10.50;;;;;;;-11.30;55.13;99837.40;1753178;82;21168;-56
2021/01/19 10:32:14;;;;;;;26.93;11.35;;;;;;;-11.31;54.98;99835.25;1752994;81;21162;-56
2021/01/19 10:34:48;;;;;;;25.40;11.53;;;;;;;-11.36;54.70;99833.48;1752933;80;21168;-56
2021/01/19 10:37:17;;;;;;;22.17;10.65;;;;;;;-11.33;54.99;99831.06;1750651;82;21146;-56
2021/01/19 10:39:52;;;;;;;23.15;9.30;;;;;;;-11.42;55.04;99827.44;1754683;80;21118;-57
2021/01/19 10:42:50;;;;;;;29.90;13.68;;;;;;;-11.48;55.23;99825.82;1759790;80;21341;-57
2021/01/19 10:45:23;;;;;;;;;;;;;;;-11.50;55.37;99825.94;1665056;85;21273;-56
2021/01/19 10:47:51;;;;;;;24.92;10.20;;;;;;;-11.41;55.33;99824.34;1677503;85;20191;-56
2021/01/19 10:50:21;;;;;;;27.82;11.38;;;;;;;-11.34;54.72;99818.44;1662844;86;21205;-57
2021/01/19 10:53:00;;;;;;;28.60;13.58;;;;;;;-11.59;54.73;99818.84;1648689;86;21213;-56
2021/01/19 10:55:30;;;;;;;24.57;11.38;;;;;;;-11.69;55.43;99809.58;1649136;86;21141;-56
2021/01/19 10:58:00;;;;;;;24.15;11.25;;;;;;;-11.55;55.22;99803.19;1673081;86;21240;-57
2021/01/19 11:00:28;;;;;;;24.47;12.03;;;;;;;-11.60;55.19;99809.30;1673076;86;21200;-56
2021/01/19 11:02:55;;;;;;;27.45;13.58;;;;;;;-11.59;55.22;99799.62;1667139;86;21651;-57
2021/01/19 11:05:23;;;;;;;23.38;11.70;;;;;;;-11.47;55.44;99805.13;1656131;86;21168;-57
2021/01/19 11:07:54;;;;;;;22.40;10.45;;;;;;;-11.34;55.08;99796.09;1642699;87;21188;-57
2021/01/19 11:10:23;;;;;;;25.85;12.28;;;;;;;-11.39;54.79;99799.59;1642581;87;21216;-56
2021/01/19 11:12:52;;;;;;;23.22;10.70;;;;;;;-11.34;54.81;99792.16;1697600;84;21156;-56
2021/01/19 11:15:20;;;;;;;21.40;9.33;;;;;;;-11.33;54.73;99779.83;1691985;84;21238;-57
2021/01/19 11:17:51;;;;;;;19.77;9.23;;;;;;;-11.26;54.50;99784.90;1672504;86;21200;-56
2021/01/19 11:20:19;;;;;;;19.23;9.15;;;;;;;-11.16;54.09;99784.48;1672862;85;21338;-56
2021/01/19 11:22:48;;;;;;;15.35;7.50;;;;;;;-11.09;54.05;99791.34;1672638;86;21216;-57
2021/01/19 11:25:16;;;;;;;24.35;11.57;;;;;;;-11.14;53.38;99783.85;1647981;85;21727;-56
2021/01/19 11:27:44;;;;;;;21.73;11.50;;;;;;;-11.28;53.53;99775.02;1645406;87;21729;-56
2021/01/19 11:30:14;;;;;;;21.27;9.10;;;;;;;-11.29;53.82;99774.66;1626886;87;21636;-56
2021/01/19 11:32:41;;;;;;;25.08;10.15;;;;;;;-11.25;53.65;99770.80;1645486;87;21668;-56
2021/01/19 11:35:10;;;;;;;19.35;9.30;;;;;;;-11.32;53.47;99768.36;1647321;86;21303;-56
2021/01/19 11:37:38;;;;;;;21.65;11.12;;;;;;;-11.39;53.54;99766.75;1645462;86;21201;-57
2021/01/19 11:40:07;;;;;;;24.45;12.00;;;;;;;-11.38;54.01;99763.16;1645339;87;21184;-57
2021/01/19 11:42:35;;;;;;;20.68;9.58;;;;;;;-11.28;53.47;99767.13;1631038;86;21671;-57